Maesteg, United Kingdom
Current Conditions -  °F | °C
As of 7:50 AM on Friday 28 Nov 2014 (Local Time) from EGDX Reporting Station
Overcast Overcast  
Wind Chill: 50°   Ceiling: 1300
Heat Index: 50°   Visibility: 6mi
Dew Point: 46°   Wind: 14mph
Humidity: 87%   Direction: 80°E
Pressure: 29.5"   Gusts: NA
Location:  51.61°N, 3.66°W
Report Text: EGDX 280750Z AUTO 08012KT 9999 OVC013/// 10/08 Q0999
Loading
Personal Weather Stations






























Interactive Weather Map New forecast layout! Learn more

10-Day Weather Forecast

Advertisements
Track Severe Weather on mobile